sensor_id;sensor_type;location;lat;lon;timestamp;temperature;humidity
20670;DHT22;10494;50.868;4.180;2022-10-23T00:03:41;14.80;99.90
20670;DHT22;10494;50.868;4.180;2022-10-23T00:06:07;14.90;99.90
20670;DHT22;10494;50.868;4.180;2022-10-23T00:08:33;14.80;99.90
20670;DHT22;10494;50.868;4.180;2022-10-23T00:10:59;14.80;99.90
20670;DHT22;10494;50.868;4.180;2022-10-23T00:13:25;14.80;99.90
20670;DHT22;10494;50.868;4.180;2022-10-23T00:15:50;14.90;99.90
20670;DHT22;10494;50.868;4.180;2022-10-23T00:18:16;15.00;99.90
20670;DHT22;10494;50.868;4.180;2022-10-23T00:20:41;15.00;99.90
20670;DHT22;10494;50.868;4.180;2022-10-23T00:23:07;15.10;99.90
20670;DHT22;10494;50.868;4.180;2022-10-23T00:25:32;15.10;99.90
20670;DHT22;10494;50.868;4.180;2022-10-23T00:27:58;14.90;99.90
20670;DHT22;10494;50.868;4.180;2022-10-23T00:30:24;14.60;99.90
20670;DHT22;10494;50.868;4.180;2022-10-23T00:32:50;14.50;99.90
20670;DHT22;10494;50.868;4.180;2022-10-23T00:35:15;14.50;99.90
20670;DHT22;10494;50.868;4.180;2022-10-23T00:37:41;14.50;99.90
20670;DHT22;10494;50.868;4.180;2022-10-23T00:40:07;14.60;99.90
20670;DHT22;10494;50.868;4.180;2022-10-23T00:42:33;14.70;99.90
20670;DHT22;10494;50.868;4.180;2022-10-23T00:45:25;14.80;99.90
20670;DHT22;10494;50.868;4.180;2022-10-23T00:47:52;14.80;99.90
20670;DHT22;10494;50.868;4.180;2022-10-23T00:50:19;14.80;99.90
20670;DHT22;10494;50.868;4.180;2022-10-23T00:52:49;14.90;99.90
20670;DHT22;10494;50.868;4.180;2022-10-23T00:55:16;15.00;99.90
20670;DHT22;10494;50.868;4.180;2022-10-23T00:57:44;15.00;99.90
20670;DHT22;10494;50.868;4.180;2022-10-23T01:00:13;15.00;99.90
20670;DHT22;10494;50.868;4.180;2022-10-23T01:02:39;15.00;99.90
20670;DHT22;10494;50.868;4.180;2022-10-23T01:05:05;15.10;99.90
20670;DHT22;10494;50.868;4.180;2022-10-23T01:16:04;15.20;99.90
20670;DHT22;10494;50.868;4.180;2022-10-23T01:21:23;15.10;99.90
20670;DHT22;10494;50.868;4.180;2022-10-23T01:24:16;15.10;99.90
20670;DHT22;10494;50.868;4.180;2022-10-23T01:27:27;15.10;99.90
20670;DHT22;10494;50.868;4.180;2022-10-23T01:32:31;15.10;99.90
20670;DHT22;10494;50.868;4.180;2022-10-23T01:37:33;15.20;99.90
20670;DHT22;10494;50.868;4.180;2022-10-23T01:40:02;15.20;99.90
20670;DHT22;10494;50.868;4.180;2022-10-23T01:42:38;15.10;99.90
20670;DHT22;10494;50.868;4.180;2022-10-23T01:45:14;15.10;99.90
20670;DHT22;10494;50.868;4.180;2022-10-23T01:47:43;15.10;99.90
20670;DHT22;10494;50.868;4.180;2022-10-23T01:50:10;15.10;99.90
20670;DHT22;10494;50.868;4.180;2022-10-23T01:52:37;15.20;99.90
20670;DHT22;10494;50.868;4.180;2022-10-23T01:55:04;15.30;99.90
20670;DHT22;10494;50.868;4.180;2022-10-23T01:57:32;15.30;99.90
20670;DHT22;10494;50.868;4.180;2022-10-23T02:00:12;15.30;99.90
20670;DHT22;10494;50.868;4.180;2022-10-23T02:02:40;15.30;99.90
20670;DHT22;10494;50.868;4.180;2022-10-23T02:05:12;15.20;99.90
20670;DHT22;10494;50.868;4.180;2022-10-23T02:07:39;15.20;99.90
20670;DHT22;10494;50.868;4.180;2022-10-23T02:10:06;15.20;99.90
20670;DHT22;10494;50.868;4.180;2022-10-23T02:12:41;15.30;99.90
20670;DHT22;10494;50.868;4.180;2022-10-23T02:15:35;15.40;99.90
20670;DHT22;10494;50.868;4.180;2022-10-23T02:21:12;15.40;99.90
20670;DHT22;10494;50.868;4.180;2022-10-23T02:24:10;15.40;99.90
20670;DHT22;10494;50.868;4.180;2022-10-23T02:26:45;15.40;99.90
20670;DHT22;10494;50.868;4.180;2022-10-23T02:29:32;15.40;99.90
20670;DHT22;10494;50.868;4.180;2022-10-23T02:32:00;15.40;99.90
20670;DHT22;10494;50.868;4.180;2022-10-23T02:34:26;15.40;99.90
20670;DHT22;10494;50.868;4.180;2022-10-23T02:36:51;15.50;99.90
20670;DHT22;10494;50.868;4.180;2022-10-23T02:39:17;15.40;99.90
20670;DHT22;10494;50.868;4.180;2022-10-23T02:41:50;15.30;99.90
20670;DHT22;10494;50.868;4.180;2022-10-23T02:44:29;15.20;99.90
20670;DHT22;10494;50.868;4.180;2022-10-23T02:58:19;15.40;99.90
20670;DHT22;10494;50.868;4.180;2022-10-23T03:01:04;15.30;99.90
20670;DHT22;10494;50.868;4.180;2022-10-23T03:03:35;15.40;99.90
20670;DHT22;10494;50.868;4.180;2022-10-23T03:06:02;15.40;99.90
20670;DHT22;10494;50.868;4.180;2022-10-23T03:08:28;15.50;99.90
20670;DHT22;10494;50.868;4.180;2022-10-23T03:10:54;15.50;99.90
20670;DHT22;10494;50.868;4.180;2022-10-23T03:13:19;15.30;99.90
20670;DHT22;10494;50.868;4.180;2022-10-23T03:15:45;15.30;99.90
20670;DHT22;10494;50.868;4.180;2022-10-23T03:18:10;15.40;99.90
20670;DHT22;10494;50.868;4.180;2022-10-23T03:20:36;15.50;99.90
20670;DHT22;10494;50.868;4.180;2022-10-23T03:23:01;15.40;99.90
20670;DHT22;10494;50.868;4.180;2022-10-23T03:25:27;15.40;99.90
20670;DHT22;10494;50.868;4.180;2022-10-23T03:27:53;15.30;99.90
20670;DHT22;10494;50.868;4.180;2022-10-23T03:30:18;15.20;99.90
20670;DHT22;10494;50.868;4.180;2022-10-23T03:32:44;15.10;99.90
20670;DHT22;10494;50.868;4.180;2022-10-23T03:35:10;15.10;99.90
20670;DHT22;10494;50.868;4.180;2022-10-23T03:37:35;15.10;99.90
20670;DHT22;10494;50.868;4.180;2022-10-23T03:40:01;15.10;99.90
20670;DHT22;10494;50.868;4.180;2022-10-23T03:42:27;15.20;99.90
20670;DHT22;10494;50.868;4.180;2022-10-23T03:44:52;15.30;99.90
20670;DHT22;10494;50.868;4.180;2022-10-23T03:47:18;15.20;99.90
20670;DHT22;10494;50.868;4.180;2022-10-23T03:49:43;15.30;99.90
20670;DHT22;10494;50.868;4.180;2022-10-23T03:52:09;15.30;99.90
20670;DHT22;10494;50.868;4.180;2022-10-23T03:54:35;15.40;99.90
20670;DHT22;10494;50.868;4.180;2022-10-23T03:57:01;15.40;99.90
20670;DHT22;10494;50.868;4.180;2022-10-23T03:59:26;15.40;99.90
20670;DHT22;10494;50.868;4.180;2022-10-23T04:01:52;15.50;99.90
20670;DHT22;10494;50.868;4.180;2022-10-23T04:04:18;15.50;99.90
20670;DHT22;10494;50.868;4.180;2022-10-23T04:06:44;15.50;99.90
20670;DHT22;10494;50.868;4.180;2022-10-23T04:09:10;15.50;99.90
20670;DHT22;10494;50.868;4.180;2022-10-23T04:11:36;15.50;99.90
20670;DHT22;10494;50.868;4.180;2022-10-23T04:14:01;15.50;99.90
20670;DHT22;10494;50.868;4.180;2022-10-23T04:16:27;15.50;99.90
20670;DHT22;10494;50.868;4.180;2022-10-23T04:18:52;15.50;99.90
20670;DHT22;10494;50.868;4.180;2022-10-23T04:21:18;15.50;99.90
20670;DHT22;10494;50.868;4.180;2022-10-23T04:23:44;15.50;99.90
20670;DHT22;10494;50.868;4.180;2022-10-23T04:26:10;15.60;99.90
20670;DHT22;10494;50.868;4.180;2022-10-23T04:28:35;15.60;99.90
20670;DHT22;10494;50.868;4.180;2022-10-23T04:31:01;15.70;99.90
20670;DHT22;10494;50.868;4.180;2022-10-23T04:33:27;15.70;99.90
20670;DHT22;10494;50.868;4.180;2022-10-23T04:35:53;15.70;99.90
20670;DHT22;10494;50.868;4.180;2022-10-23T04:38:18;15.80;99.90
20670;DHT22;10494;50.868;4.180;2022-10-23T04:40:44;15.80;99.90
20670;DHT22;10494;50.868;4.180;2022-10-23T04:43:09;15.80;99.90
20670;DHT22;10494;50.868;4.180;2022-10-23T04:45:35;15.90;99.90
20670;DHT22;10494;50.868;4.180;2022-10-23T04:48:00;15.80;99.90
20670;DHT22;10494;50.868;4.180;2022-10-23T04:50:26;15.50;99.90
20670;DHT22;10494;50.868;4.180;2022-10-23T04:52:56;15.50;99.90
20670;DHT22;10494;50.868;4.180;2022-10-23T04:55:22;15.60;99.90
20670;DHT22;10494;50.868;4.180;2022-10-23T04:57:50;15.70;99.90
20670;DHT22;10494;50.868;4.180;2022-10-23T05:00:16;15.60;99.90
20670;DHT22;10494;50.868;4.180;2022-10-23T05:02:41;15.60;99.90
20670;DHT22;10494;50.868;4.180;2022-10-23T05:05:07;15.70;99.90
20670;DHT22;10494;50.868;4.180;2022-10-23T05:07:34;15.70;99.90
20670;DHT22;10494;50.868;4.180;2022-10-23T05:10:00;15.80;99.90
20670;DHT22;10494;50.868;4.180;2022-10-23T05:12:25;15.80;99.90
20670;DHT22;10494;50.868;4.180;2022-10-23T05:14:52;15.80;99.90
20670;DHT22;10494;50.868;4.180;2022-10-23T05:17:25;15.70;99.90
20670;DHT22;10494;50.868;4.180;2022-10-23T05:19:54;15.80;99.90
20670;DHT22;10494;50.868;4.180;2022-10-23T05:22:21;15.60;99.90
20670;DHT22;10494;50.868;4.180;2022-10-23T05:24:49;15.60;99.90
20670;DHT22;10494;50.868;4.180;2022-10-23T05:27:14;15.70;99.90
20670;DHT22;10494;50.868;4.180;2022-10-23T05:29:40;15.70;99.90
20670;DHT22;10494;50.868;4.180;2022-10-23T05:32:06;15.60;99.90
20670;DHT22;10494;50.868;4.180;2022-10-23T05:34:34;15.70;99.90
20670;DHT22;10494;50.868;4.180;2022-10-23T05:37:02;15.90;99.90
20670;DHT22;10494;50.868;4.180;2022-10-23T05:39:29;15.90;99.90
20670;DHT22;10494;50.868;4.180;2022-10-23T05:41:54;15.90;99.90
20670;DHT22;10494;50.868;4.180;2022-10-23T05:44:20;15.90;99.90
20670;DHT22;10494;50.868;4.180;2022-10-23T05:46:46;16.00;99.90
20670;DHT22;10494;50.868;4.180;2022-10-23T05:49:11;16.00;99.90
20670;DHT22;10494;50.868;4.180;2022-10-23T05:51:39;15.90;99.90
20670;DHT22;10494;50.868;4.180;2022-10-23T05:54:05;15.80;99.90
20670;DHT22;10494;50.868;4.180;2022-10-23T05:56:33;15.60;99.90
20670;DHT22;10494;50.868;4.180;2022-10-23T05:58:59;15.60;99.90
20670;DHT22;10494;50.868;4.180;2022-10-23T06:01:25;15.60;99.90
20670;DHT22;10494;50.868;4.180;2022-10-23T06:03:50;15.70;99.90
20670;DHT22;10494;50.868;4.180;2022-10-23T06:06:16;15.70;99.90
20670;DHT22;10494;50.868;4.180;2022-10-23T06:08:42;15.80;99.90
20670;DHT22;10494;50.868;4.180;2022-10-23T06:11:09;15.80;99.90
20670;DHT22;10494;50.868;4.180;2022-10-23T06:13:35;15.90;99.90
20670;DHT22;10494;50.868;4.180;2022-10-23T06:16:16;15.80;99.90
20670;DHT22;10494;50.868;4.180;2022-10-23T06:18:42;15.90;99.90
20670;DHT22;10494;50.868;4.180;2022-10-23T06:21:09;15.80;99.90
20670;DHT22;10494;50.868;4.180;2022-10-23T06:23:37;15.80;99.90
20670;DHT22;10494;50.868;4.180;2022-10-23T06:26:04;15.80;99.90
20670;DHT22;10494;50.868;4.180;2022-10-23T06:28:29;15.70;99.90
20670;DHT22;10494;50.868;4.180;2022-10-23T06:30:55;15.60;99.90
20670;DHT22;10494;50.868;4.180;2022-10-23T06:33:21;15.60;99.90
20670;DHT22;10494;50.868;4.180;2022-10-23T06:35:46;15.60;99.90
20670;DHT22;10494;50.868;4.180;2022-10-23T06:38:12;15.70;99.90
20670;DHT22;10494;50.868;4.180;2022-10-23T06:40:38;15.70;99.90
20670;DHT22;10494;50.868;4.180;2022-10-23T06:43:04;15.80;99.90
20670;DHT22;10494;50.868;4.180;2022-10-23T06:45:31;15.70;99.90
20670;DHT22;10494;50.868;4.180;2022-10-23T06:47:58;15.70;99.90
20670;DHT22;10494;50.868;4.180;2022-10-23T06:50:24;15.80;99.90
20670;DHT22;10494;50.868;4.180;2022-10-23T06:52:50;15.90;99.90
20670;DHT22;10494;50.868;4.180;2022-10-23T06:55:17;15.90;99.90
20670;DHT22;10494;50.868;4.180;2022-10-23T06:57:43;16.00;99.90
20670;DHT22;10494;50.868;4.180;2022-10-23T07:00:09;15.90;99.90
20670;DHT22;10494;50.868;4.180;2022-10-23T07:02:35;16.00;99.90
20670;DHT22;10494;50.868;4.180;2022-10-23T07:05:00;16.10;99.90
20670;DHT22;10494;50.868;4.180;2022-10-23T07:07:28;16.20;99.90
20670;DHT22;10494;50.868;4.180;2022-10-23T07:09:54;16.20;99.90
20670;DHT22;10494;50.868;4.180;2022-10-23T07:12:20;16.30;99.90
20670;DHT22;10494;50.868;4.180;2022-10-23T07:14:46;16.30;99.90
20670;DHT22;10494;50.868;4.180;2022-10-23T07:17:11;16.30;99.90
20670;DHT22;10494;50.868;4.180;2022-10-23T07:19:37;16.20;99.90
20670;DHT22;10494;50.868;4.180;2022-10-23T07:22:02;16.20;99.90
20670;DHT22;10494;50.868;4.180;2022-10-23T07:24:28;16.30;99.90
20670;DHT22;10494;50.868;4.180;2022-10-23T07:26:55;16.30;99.90
20670;DHT22;10494;50.868;4.180;2022-10-23T07:29:21;16.40;99.90
20670;DHT22;10494;50.868;4.180;2022-10-23T07:31:46;16.40;99.90
20670;DHT22;10494;50.868;4.180;2022-10-23T07:34:12;16.40;99.90
20670;DHT22;10494;50.868;4.180;2022-10-23T07:36:37;16.40;99.90
20670;DHT22;10494;50.868;4.180;2022-10-23T07:39:03;16.40;99.90
20670;DHT22;10494;50.868;4.180;2022-10-23T07:41:29;16.40;99.90
20670;DHT22;10494;50.868;4.180;2022-10-23T07:43:54;16.50;99.90
20670;DHT22;10494;50.868;4.180;2022-10-23T07:46:20;16.50;99.90
20670;DHT22;10494;50.868;4.180;2022-10-23T07:48:45;16.50;99.90
20670;DHT22;10494;50.868;4.180;2022-10-23T07:51:13;16.60;99.90
20670;DHT22;10494;50.868;4.180;2022-10-23T07:53:39;16.60;99.90
20670;DHT22;10494;50.868;4.180;2022-10-23T07:56:16;16.60;99.90
20670;DHT22;10494;50.868;4.180;2022-10-23T07:58:42;16.70;99.90
20670;DHT22;10494;50.868;4.180;2022-10-23T08:01:19;16.70;99.90
20670;DHT22;10494;50.868;4.180;2022-10-23T08:03:47;16.70;99.90
20670;DHT22;10494;50.868;4.180;2022-10-23T08:06:13;16.70;99.90
20670;DHT22;10494;50.868;4.180;2022-10-23T08:08:39;16.70;99.90
20670;DHT22;10494;50.868;4.180;2022-10-23T08:11:04;16.70;99.90
20670;DHT22;10494;50.868;4.180;2022-10-23T08:13:30;16.70;99.90
20670;DHT22;10494;50.868;4.180;2022-10-23T08:15:56;16.70;99.90
20670;DHT22;10494;50.868;4.180;2022-10-23T08:18:22;16.70;99.90
20670;DHT22;10494;50.868;4.180;2022-10-23T08:20:48;16.80;99.90
20670;DHT22;10494;50.868;4.180;2022-10-23T08:23:17;16.80;99.90
20670;DHT22;10494;50.868;4.180;2022-10-23T08:25:44;16.80;99.90
20670;DHT22;10494;50.868;4.180;2022-10-23T08:28:10;16.80;99.90
20670;DHT22;10494;50.868;4.180;2022-10-23T08:30:36;16.80;99.90
20670;DHT22;10494;50.868;4.180;2022-10-23T08:33:03;16.80;99.90
20670;DHT22;10494;50.868;4.180;2022-10-23T08:35:29;16.70;99.90
20670;DHT22;10494;50.868;4.180;2022-10-23T08:37:54;16.70;99.90
20670;DHT22;10494;50.868;4.180;2022-10-23T08:40:24;16.80;99.90
20670;DHT22;10494;50.868;4.180;2022-10-23T08:43:00;16.80;99.90
20670;DHT22;10494;50.868;4.180;2022-10-23T08:45:57;16.90;99.90
20670;DHT22;10494;50.868;4.180;2022-10-23T08:48:31;17.10;99.90
20670;DHT22;10494;50.868;4.180;2022-10-23T08:51:15;17.20;99.90
20670;DHT22;10494;50.868;4.180;2022-10-23T08:56:34;17.30;99.90
20670;DHT22;10494;50.868;4.180;2022-10-23T08:59:10;17.30;99.90
20670;DHT22;10494;50.868;4.180;2022-10-23T09:01:46;17.30;99.90
20670;DHT22;10494;50.868;4.180;2022-10-23T09:04:14;17.30;99.90
20670;DHT22;10494;50.868;4.180;2022-10-23T09:12:23;17.50;99.90
20670;DHT22;10494;50.868;4.180;2022-10-23T09:15:17;17.40;99.90
20670;DHT22;10494;50.868;4.180;2022-10-23T09:17:45;17.50;99.90
20670;DHT22;10494;50.868;4.180;2022-10-23T09:20:29;17.60;99.90
20670;DHT22;10494;50.868;4.180;2022-10-23T09:23:02;17.60;99.90
20670;DHT22;10494;50.868;4.180;2022-10-23T09:25:33;17.60;99.90
20670;DHT22;10494;50.868;4.180;2022-10-23T09:28:00;17.70;99.90
20670;DHT22;10494;50.868;4.180;2022-10-23T09:30:32;17.60;99.90
20670;DHT22;10494;50.868;4.180;2022-10-23T09:33:00;17.50;99.90
20670;DHT22;10494;50.868;4.180;2022-10-23T09:35:36;17.50;99.90
20670;DHT22;10494;50.868;4.180;2022-10-23T09:38:02;17.40;99.90
20670;DHT22;10494;50.868;4.180;2022-10-23T09:40:42;17.40;99.90
20670;DHT22;10494;50.868;4.180;2022-10-23T09:43:16;17.40;99.90
20670;DHT22;10494;50.868;4.180;2022-10-23T09:45:42;17.40;99.90
20670;DHT22;10494;50.868;4.180;2022-10-23T09:48:17;17.40;99.90
20670;DHT22;10494;50.868;4.180;2022-10-23T09:51:15;17.50;99.90
20670;DHT22;10494;50.868;4.180;2022-10-23T09:53:53;17.50;99.90
20670;DHT22;10494;50.868;4.180;2022-10-23T09:56:30;17.60;99.90
20670;DHT22;10494;50.868;4.180;2022-10-23T09:59:03;17.70;99.90
20670;DHT22;10494;50.868;4.180;2022-10-23T10:01:32;17.60;99.90
20670;DHT22;10494;50.868;4.180;2022-10-23T10:04:00;17.70;99.90
20670;DHT22;10494;50.868;4.180;2022-10-23T10:06:29;17.60;99.90
20670;DHT22;10494;50.868;4.180;2022-10-23T10:09:05;17.70;99.90
20670;DHT22;10494;50.868;4.180;2022-10-23T10:11:54;17.70;99.90
20670;DHT22;10494;50.868;4.180;2022-10-23T10:23:15;17.80;99.90
20670;DHT22;10494;50.868;4.180;2022-10-23T10:26:38;17.90;99.90
20670;DHT22;10494;50.868;4.180;2022-10-23T10:36:55;18.00;99.90
20670;DHT22;10494;50.868;4.180;2022-10-23T10:40:12;18.10;99.90
20670;DHT22;10494;50.868;4.180;2022-10-23T10:45:27;18.20;99.90
20670;DHT22;10494;50.868;4.180;2022-10-23T10:48:20;18.30;99.90
20670;DHT22;10494;50.868;4.180;2022-10-23T10:51:01;18.30;99.90
20670;DHT22;10494;50.868;4.180;2022-10-23T10:56:19;18.30;99.90
20670;DHT22;10494;50.868;4.180;2022-10-23T10:58:56;18.40;99.90
20670;DHT22;10494;50.868;4.180;2022-10-23T11:04:40;18.50;99.90
20670;DHT22;10494;50.868;4.180;2022-10-23T11:07:13;18.50;99.90
20670;DHT22;10494;50.868;4.180;2022-10-23T11:09:41;18.60;99.90
20670;DHT22;10494;50.868;4.180;2022-10-23T11:12:14;18.60;99.90
20670;DHT22;10494;50.868;4.180;2022-10-23T11:14:42;18.70;99.90
20670;DHT22;10494;50.868;4.180;2022-10-23T11:17:10;18.70;99.90
20670;DHT22;10494;50.868;4.180;2022-10-23T11:20:04;18.80;99.90
20670;DHT22;10494;50.868;4.180;2022-10-23T11:22:36;18.90;99.90
20670;DHT22;10494;50.868;4.180;2022-10-23T11:28:27;19.10;99.90
20670;DHT22;10494;50.868;4.180;2022-10-23T11:31:24;19.20;99.90
20670;DHT22;10494;50.868;4.180;2022-10-23T11:34:42;19.10;99.90
20670;DHT22;10494;50.868;4.180;2022-10-23T11:37:05;19.20;99.90
20670;DHT22;10494;50.868;4.180;2022-10-23T11:39:35;19.30;99.90
20670;DHT22;10494;50.868;4.180;2022-10-23T11:47:04;19.50;99.90
20670;DHT22;10494;50.868;4.180;2022-10-23T11:49:31;19.60;99.90
20670;DHT22;10494;50.868;4.180;2022-10-23T11:52:04;19.60;99.90
20670;DHT22;10494;50.868;4.180;2022-10-23T11:54:30;19.70;99.90
20670;DHT22;10494;50.868;4.180;2022-10-23T11:57:12;19.70;99.90
20670;DHT22;10494;50.868;4.180;2022-10-23T12:02:33;19.80;99.90
20670;DHT22;10494;50.868;4.180;2022-10-23T12:05:07;19.90;99.90
20670;DHT22;10494;50.868;4.180;2022-10-23T12:07:36;19.90;99.90
20670;DHT22;10494;50.868;4.180;2022-10-23T12:12:56;20.10;99.90
20670;DHT22;10494;50.868;4.180;2022-10-23T12:15:23;20.20;99.90
20670;DHT22;10494;50.868;4.180;2022-10-23T12:17:51;20.20;99.90
20670;DHT22;10494;50.868;4.180;2022-10-23T12:20:26;20.30;99.90
20670;DHT22;10494;50.868;4.180;2022-10-23T12:25:36;20.40;99.90
20670;DHT22;10494;50.868;4.180;2022-10-23T12:28:35;20.50;99.90
20670;DHT22;10494;50.868;4.180;2022-10-23T12:31:22;20.50;99.90
20670;DHT22;10494;50.868;4.180;2022-10-23T12:38:55;20.40;99.90
20670;DHT22;10494;50.868;4.180;2022-10-23T12:41:27;20.50;99.90
20670;DHT22;10494;50.868;4.180;2022-10-23T12:44:04;20.50;99.90
20670;DHT22;10494;50.868;4.180;2022-10-23T12:46:41;20.70;99.90
20670;DHT22;10494;50.868;4.180;2022-10-23T12:49:19;20.80;99.90
20670;DHT22;10494;50.868;4.180;2022-10-23T12:52:04;20.70;99.90
20670;DHT22;10494;50.868;4.180;2022-10-23T12:54:31;20.80;99.90
20670;DHT22;10494;50.868;4.180;2022-10-23T12:56:58;20.90;99.90
20670;DHT22;10494;50.868;4.180;2022-10-23T12:59:26;21.00;99.90
20670;DHT22;10494;50.868;4.180;2022-10-23T13:01:53;20.90;99.90
20670;DHT22;10494;50.868;4.180;2022-10-23T13:06:51;21.10;99.90
20670;DHT22;10494;50.868;4.180;2022-10-23T13:09:30;21.20;99.90
20670;DHT22;10494;50.868;4.180;2022-10-23T13:11:58;21.10;99.90
20670;DHT22;10494;50.868;4.180;2022-10-23T13:17:04;21.10;99.90
20670;DHT22;10494;50.868;4.180;2022-10-23T13:19:29;21.10;99.90
20670;DHT22;10494;50.868;4.180;2022-10-23T13:21:56;21.10;99.90
20670;DHT22;10494;50.868;4.180;2022-10-23T13:24:24;21.10;99.90
20670;DHT22;10494;50.868;4.180;2022-10-23T13:26:50;21.00;99.90
20670;DHT22;10494;50.868;4.180;2022-10-23T13:29:18;20.90;99.90
20670;DHT22;10494;50.868;4.180;2022-10-23T13:31:44;20.90;99.90
20670;DHT22;10494;50.868;4.180;2022-10-23T13:34:29;21.00;99.90
20670;DHT22;10494;50.868;4.180;2022-10-23T13:39:29;20.80;99.90
20670;DHT22;10494;50.868;4.180;2022-10-23T13:41:56;20.90;99.90
20670;DHT22;10494;50.868;4.180;2022-10-23T13:44:23;20.80;99.90
20670;DHT22;10494;50.868;4.180;2022-10-23T13:46:49;20.70;99.90
20670;DHT22;10494;50.868;4.180;2022-10-23T13:49:17;20.60;99.90
20670;DHT22;10494;50.868;4.180;2022-10-23T13:51:51;20.60;99.90
20670;DHT22;10494;50.868;4.180;2022-10-23T13:54:27;20.60;99.90
20670;DHT22;10494;50.868;4.180;2022-10-23T13:56:53;20.60;99.90
20670;DHT22;10494;50.868;4.180;2022-10-23T13:59:20;20.70;99.90
20670;DHT22;10494;50.868;4.180;2022-10-23T14:01:47;20.70;99.90
20670;DHT22;10494;50.868;4.180;2022-10-23T14:04:15;20.60;99.90
20670;DHT22;10494;50.868;4.180;2022-10-23T14:06:41;20.60;99.90
20670;DHT22;10494;50.868;4.180;2022-10-23T14:09:11;20.70;99.90
20670;DHT22;10494;50.868;4.180;2022-10-23T14:11:37;20.70;99.90
20670;DHT22;10494;50.868;4.180;2022-10-23T14:14:03;20.70;99.90
20670;DHT22;10494;50.868;4.180;2022-10-23T14:16:29;20.80;99.90
20670;DHT22;10494;50.868;4.180;2022-10-23T14:18:54;20.80;99.90
20670;DHT22;10494;50.868;4.180;2022-10-23T14:21:21;20.80;99.90
20670;DHT22;10494;50.868;4.180;2022-10-23T14:23:48;20.80;99.90
20670;DHT22;10494;50.868;4.180;2022-10-23T14:26:17;20.80;99.90
20670;DHT22;10494;50.868;4.180;2022-10-23T14:28:43;20.80;99.90
20670;DHT22;10494;50.868;4.180;2022-10-23T14:31:11;20.80;99.90
20670;DHT22;10494;50.868;4.180;2022-10-23T14:33:38;20.80;99.90
20670;DHT22;10494;50.868;4.180;2022-10-23T14:36:04;20.70;99.90
20670;DHT22;10494;50.868;4.180;2022-10-23T14:38:29;20.60;99.90
20670;DHT22;10494;50.868;4.180;2022-10-23T14:40:55;20.60;99.90
20670;DHT22;10494;50.868;4.180;2022-10-23T14:43:22;20.60;99.90
20670;DHT22;10494;50.868;4.180;2022-10-23T14:45:48;20.50;99.90
20670;DHT22;10494;50.868;4.180;2022-10-23T14:48:14;20.50;99.90
20670;DHT22;10494;50.868;4.180;2022-10-23T14:50:44;20.40;99.90
20670;DHT22;10494;50.868;4.180;2022-10-23T14:53:10;20.40;99.90
20670;DHT22;10494;50.868;4.180;2022-10-23T14:55:36;20.40;99.90
20670;DHT22;10494;50.868;4.180;2022-10-23T14:58:03;20.30;99.90
20670;DHT22;10494;50.868;4.180;2022-10-23T15:00:28;20.20;99.90
20670;DHT22;10494;50.868;4.180;2022-10-23T15:02:54;20.20;99.90
20670;DHT22;10494;50.868;4.180;2022-10-23T15:05:20;20.20;99.90
20670;DHT22;10494;50.868;4.180;2022-10-23T15:07:45;20.10;99.90
20670;DHT22;10494;50.868;4.180;2022-10-23T15:10:11;20.10;99.90
20670;DHT22;10494;50.868;4.180;2022-10-23T15:12:37;20.20;99.90
20670;DHT22;10494;50.868;4.180;2022-10-23T15:15:04;20.20;99.90
20670;DHT22;10494;50.868;4.180;2022-10-23T15:17:30;20.10;99.90
20670;DHT22;10494;50.868;4.180;2022-10-23T15:19:56;20.10;99.90
20670;DHT22;10494;50.868;4.180;2022-10-23T15:22:22;20.00;99.90
20670;DHT22;10494;50.868;4.180;2022-10-23T15:24:48;20.10;99.90
20670;DHT22;10494;50.868;4.180;2022-10-23T15:27:14;20.10;99.90
20670;DHT22;10494;50.868;4.180;2022-10-23T15:29:39;20.10;99.90
20670;DHT22;10494;50.868;4.180;2022-10-23T15:32:05;20.10;99.90
20670;DHT22;10494;50.868;4.180;2022-10-23T15:34:33;20.10;99.90
20670;DHT22;10494;50.868;4.180;2022-10-23T15:36:59;20.10;99.90
20670;DHT22;10494;50.868;4.180;2022-10-23T15:39:27;20.00;99.90
20670;DHT22;10494;50.868;4.180;2022-10-23T15:41:56;20.10;99.90
20670;DHT22;10494;50.868;4.180;2022-10-23T15:44:24;20.10;99.90
20670;DHT22;10494;50.868;4.180;2022-10-23T15:46:50;20.10;99.90
20670;DHT22;10494;50.868;4.180;2022-10-23T15:49:17;20.10;99.90
20670;DHT22;10494;50.868;4.180;2022-10-23T15:51:43;20.20;99.90
20670;DHT22;10494;50.868;4.180;2022-10-23T15:54:12;20.20;99.90
20670;DHT22;10494;50.868;4.180;2022-10-23T15:56:48;20.20;99.90
20670;DHT22;10494;50.868;4.180;2022-10-23T15:59:15;20.10;99.90
20670;DHT22;10494;50.868;4.180;2022-10-23T16:01:40;20.10;99.90
20670;DHT22;10494;50.868;4.180;2022-10-23T16:04:06;20.10;99.90
20670;DHT22;10494;50.868;4.180;2022-10-23T16:06:32;20.10;99.90
20670;DHT22;10494;50.868;4.180;2022-10-23T16:08:58;20.10;99.90
20670;DHT22;10494;50.868;4.180;2022-10-23T16:11:27;20.00;99.90
20670;DHT22;10494;50.868;4.180;2022-10-23T16:13:54;20.00;99.90
20670;DHT22;10494;50.868;4.180;2022-10-23T16:16:19;20.00;99.90
20670;DHT22;10494;50.868;4.180;2022-10-23T16:18:45;19.90;99.90
20670;DHT22;10494;50.868;4.180;2022-10-23T16:21:23;19.90;99.90
20670;DHT22;10494;50.868;4.180;2022-10-23T16:23:49;19.80;99.90
20670;DHT22;10494;50.868;4.180;2022-10-23T16:26:16;19.80;99.90
20670;DHT22;10494;50.868;4.180;2022-10-23T16:28:42;19.70;99.90
20670;DHT22;10494;50.868;4.180;2022-10-23T16:31:11;19.70;99.90
20670;DHT22;10494;50.868;4.180;2022-10-23T16:33:37;19.60;99.90
20670;DHT22;10494;50.868;4.180;2022-10-23T16:36:03;19.60;99.90
20670;DHT22;10494;50.868;4.180;2022-10-23T16:38:29;19.50;99.90
20670;DHT22;10494;50.868;4.180;2022-10-23T16:40:55;19.50;99.90
20670;DHT22;10494;50.868;4.180;2022-10-23T16:43:20;19.50;99.90
20670;DHT22;10494;50.868;4.180;2022-10-23T16:45:46;19.30;99.90
20670;DHT22;10494;50.868;4.180;2022-10-23T16:48:12;19.40;99.90
20670;DHT22;10494;50.868;4.180;2022-10-23T16:50:39;19.20;99.90
20670;DHT22;10494;50.868;4.180;2022-10-23T16:53:05;19.20;99.90
20670;DHT22;10494;50.868;4.180;2022-10-23T16:55:30;19.20;99.90
20670;DHT22;10494;50.868;4.180;2022-10-23T16:57:56;19.20;99.90
20670;DHT22;10494;50.868;4.180;2022-10-23T17:00:25;19.30;99.90
20670;DHT22;10494;50.868;4.180;2022-10-23T17:02:59;19.30;99.90
20670;DHT22;10494;50.868;4.180;2022-10-23T17:05:25;19.30;99.90
20670;DHT22;10494;50.868;4.180;2022-10-23T17:07:51;19.30;99.90
20670;DHT22;10494;50.868;4.180;2022-10-23T17:10:16;19.20;99.90
20670;DHT22;10494;50.868;4.180;2022-10-23T17:12:42;19.10;99.90
20670;DHT22;10494;50.868;4.180;2022-10-23T17:15:08;19.10;99.90
20670;DHT22;10494;50.868;4.180;2022-10-23T17:17:33;19.10;99.90
20670;DHT22;10494;50.868;4.180;2022-10-23T17:19:59;19.20;99.90